RYR4676 LIRN-LIMJ
Flight info
| Callsign | RYR4676 |
|---|---|
| Flight time | 1h 16m |
| Altitude | 34000 |
| Route | VEXUV DCT PNZ DCT LUNAK DCT RAVAL DCT ELB DCT NORNI DCT BETEN M729 IDONA |
| Aircraft | B738/M-SDE2E3FGHIRWXY/LB1 |
Departure
| Time | 2026-04-22 08:14 |
|---|---|
| Airport | Naples International Airport (LIRN) |
Arrival
| Time | 2026-04-22 09:30 |
|---|---|
| Airport | Genoa Cristoforo Colombo Airport (LIMJ) |
| Time | Latitude | Longitude | Altitude | Speed | Heading |
|---|---|---|---|---|---|
| 2026-04-22 07:43 | 40.88236 | 14.28810 | 276 ft | 0 kts | 328° |
| 2026-04-22 08:05 | 40.88222 | 14.28822 | 276 ft | 4 kts | 328° |
| 2026-04-22 08:06 | 40.88203 | 14.28837 | 276 ft | 4 kts | 310° |
| 2026-04-22 08:06 | 40.88197 | 14.28864 | 276 ft | 4 kts | 249° |
| 2026-04-22 08:06 | 40.88210 | 14.28892 | 275 ft | 4 kts | 232° |
| 2026-04-22 08:06 | 40.88217 | 14.28903 | 275 ft | 1 kts | 232° |
| 2026-04-22 08:09 | 40.88215 | 14.28900 | 275 ft | 2 kts | 232° |
| 2026-04-22 08:09 | 40.88200 | 14.28873 | 281 ft | 5 kts | 232° |
| 2026-04-22 08:10 | 40.88176 | 14.28832 | 277 ft | 7 kts | 233° |
| 2026-04-22 08:10 | 40.88141 | 14.28770 | 281 ft | 9 kts | 232° |
| 2026-04-22 08:10 | 40.88101 | 14.28702 | 282 ft | 9 kts | 233° |
| 2026-04-22 08:10 | 40.88063 | 14.28635 | 285 ft | 9 kts | 233° |
| 2026-04-22 08:11 | 40.88037 | 14.28563 | 283 ft | 9 kts | 265° |
| 2026-04-22 08:11 | 40.88048 | 14.28482 | 284 ft | 9 kts | 277° |
| 2026-04-22 08:11 | 40.88055 | 14.28395 | 286 ft | 10 kts | 276° |
| 2026-04-22 08:11 | 40.88064 | 14.28302 | 287 ft | 10 kts | 278° |
| 2026-04-22 08:12 | 40.88054 | 14.28211 | 293 ft | 10 kts | 242° |
| 2026-04-22 08:12 | 40.88019 | 14.28130 | 294 ft | 8 kts | 249° |
| 2026-04-22 08:12 | 40.88023 | 14.28092 | 295 ft | 6 kts | 296° |
| 2026-04-22 08:12 | 40.88069 | 14.28046 | 291 ft | 6 kts | 327° |
| 2026-04-22 08:13 | 40.88095 | 14.28031 | 291 ft | 6 kts | 352° |
| 2026-04-22 08:13 | 40.88139 | 14.28094 | 289 ft | 11 kts | 58° |
| 2026-04-22 08:13 | 40.88269 | 14.28369 | 285 ft | 72 kts | 58° |
| 2026-04-22 08:13 | 40.88664 | 14.29206 | 263 ft | 140 kts | 58° |
| 2026-04-22 08:14 | 40.89249 | 14.30448 | 626 ft | 162 kts | 58° |
| 2026-04-22 08:14 | 40.89643 | 14.31274 | 1280 ft | 157 kts | 58° |
| 2026-04-22 08:14 | 40.90429 | 14.32943 | 2199 ft | 171 kts | 58° |
| 2026-04-22 08:14 | 40.90874 | 14.33890 | 2385 ft | 193 kts | 58° |
| 2026-04-22 08:15 | 40.91622 | 14.35481 | 2761 ft | 211 kts | 57° |
| 2026-04-22 08:15 | 40.92417 | 14.37176 | 3308 ft | 216 kts | 57° |
| 2026-04-22 08:15 | 40.93257 | 14.38854 | 3854 ft | 222 kts | 47° |
| 2026-04-22 08:15 | 40.94481 | 14.40030 | 4483 ft | 221 kts | 20° |
| 2026-04-22 08:16 | 40.95997 | 14.40351 | 5167 ft | 219 kts | 353° |
| 2026-04-22 08:16 | 40.97417 | 14.39730 | 5786 ft | 221 kts | 327° |
| 2026-04-22 08:16 | 40.98486 | 14.38286 | 6396 ft | 224 kts | 300° |
| 2026-04-22 08:16 | 40.98941 | 14.36318 | 7013 ft | 228 kts | 273° |
| 2026-04-22 08:17 | 40.98649 | 14.34259 | 7631 ft | 232 kts | 245° |
| 2026-04-22 08:17 | 40.97623 | 14.32609 | 8223 ft | 237 kts | 218° |
| 2026-04-22 08:17 | 40.96222 | 14.31417 | 8819 ft | 240 kts | 213° |
| 2026-04-22 08:17 | 40.94779 | 14.30268 | 9404 ft | 243 kts | 213° |
| 2026-04-22 08:18 | 40.93332 | 14.29114 | 10007 ft | 243 kts | 214° |
| 2026-04-22 08:18 | 40.91885 | 14.27945 | 10601 ft | 244 kts | 216° |
| 2026-04-22 08:18 | 40.90434 | 14.26765 | 11200 ft | 245 kts | 216° |
| 2026-04-22 08:18 | 40.88982 | 14.25581 | 11814 ft | 246 kts | 217° |
| 2026-04-22 08:19 | 40.87528 | 14.24392 | 12423 ft | 246 kts | 218° |
| 2026-04-22 08:19 | 40.85945 | 14.23444 | 12957 ft | 259 kts | 196° |
| 2026-04-22 08:19 | 40.84097 | 14.23543 | 13226 ft | 286 kts | 172° |
| 2026-04-22 08:19 | 40.82130 | 14.24280 | 13539 ft | 299 kts | 168° |
| 2026-04-22 08:20 | 40.80109 | 14.25099 | 13921 ft | 313 kts | 168° |
| 2026-04-22 08:20 | 40.77959 | 14.25951 | 14321 ft | 328 kts | 168° |
| 2026-04-22 08:20 | 40.75753 | 14.26807 | 15004 ft | 333 kts | 169° |
| 2026-04-22 08:20 | 40.73515 | 14.27624 | 15735 ft | 333 kts | 176° |
| 2026-04-22 08:21 | 40.71247 | 14.27584 | 16423 ft | 321 kts | 201° |
| 2026-04-22 08:21 | 40.69234 | 14.26499 | 17163 ft | 308 kts | 221° |
| 2026-04-22 08:21 | 40.67562 | 14.24771 | 17893 ft | 304 kts | 228° |
| 2026-04-22 08:21 | 40.65958 | 14.22927 | 18590 ft | 306 kts | 229° |
| 2026-04-22 08:22 | 40.64356 | 14.21054 | 19221 ft | 311 kts | 229° |
| 2026-04-22 08:22 | 40.62722 | 14.19152 | 19833 ft | 315 kts | 229° |
| 2026-04-22 08:22 | 40.61061 | 14.17236 | 20461 ft | 319 kts | 229° |
| 2026-04-22 08:22 | 40.59375 | 14.15306 | 21091 ft | 322 kts | 229° |
| 2026-04-22 08:23 | 40.57696 | 14.13391 | 21668 ft | 326 kts | 228° |
| 2026-04-22 08:23 | 40.55946 | 14.11400 | 22239 ft | 330 kts | 228° |
| 2026-04-22 08:23 | 40.54198 | 14.09416 | 22780 ft | 334 kts | 228° |
| 2026-04-22 08:23 | 40.52452 | 14.07436 | 23334 ft | 337 kts | 228° |
| 2026-04-22 08:24 | 40.50747 | 14.05329 | 23853 ft | 334 kts | 238° |
| 2026-04-22 08:24 | 40.49582 | 14.02762 | 24362 ft | 325 kts | 253° |
| 2026-04-22 08:24 | 40.48780 | 13.99976 | 24882 ft | 326 kts | 256° |
| 2026-04-22 08:24 | 40.48487 | 13.98900 | 25069 ft | 327 kts | 256° |
| 2026-04-22 08:25 | 40.48201 | 13.97836 | 25259 ft | 328 kts | 256° |
| 2026-04-22 08:25 | 40.48177 | 13.97748 | 25278 ft | 328 kts | 256° |
| 2026-04-22 08:25 | 40.48064 | 13.97326 | 25357 ft | 328 kts | 256° |
| 2026-04-22 08:26 | 40.47302 | 13.94506 | 25897 ft | 329 kts | 256° |
| 2026-04-22 08:26 | 40.46912 | 13.93077 | 26116 ft | 332 kts | 256° |
| 2026-04-22 08:26 | 40.46267 | 13.90741 | 26482 ft | 335 kts | 256° |
| 2026-04-22 08:27 | 40.45476 | 13.87913 | 26896 ft | 339 kts | 255° |
| 2026-04-22 08:27 | 40.45267 | 13.87169 | 27006 ft | 339 kts | 255° |
| 2026-04-22 08:27 | 40.44442 | 13.84252 | 27456 ft | 342 kts | 255° |
| 2026-04-22 08:27 | 40.43626 | 13.81312 | 27932 ft | 342 kts | 259° |
| 2026-04-22 08:28 | 40.43339 | 13.78263 | 28315 ft | 335 kts | 277° |
| 2026-04-22 08:28 | 40.43736 | 13.75263 | 28632 ft | 337 kts | 289° |
| 2026-04-22 08:28 | 40.44728 | 13.72430 | 28678 ft | 348 kts | 303° |
| 2026-04-22 08:28 | 40.46185 | 13.69829 | 28762 ft | 359 kts | 307° |
| 2026-04-22 08:29 | 40.47782 | 13.67241 | 28842 ft | 370 kts | 308° |
| 2026-04-22 08:29 | 40.49099 | 13.65153 | 28965 ft | 376 kts | 308° |
| 2026-04-22 08:29 | 40.50643 | 13.62703 | 29297 ft | 377 kts | 308° |
| 2026-04-22 08:30 | 40.52292 | 13.60065 | 29713 ft | 378 kts | 308° |
| 2026-04-22 08:30 | 40.53948 | 13.57389 | 30122 ft | 378 kts | 308° |
| 2026-04-22 08:30 | 40.55602 | 13.54696 | 30433 ft | 380 kts | 307° |
| 2026-04-22 08:30 | 40.57265 | 13.51974 | 30702 ft | 383 kts | 307° |
| 2026-04-22 08:31 | 40.58938 | 13.49228 | 31010 ft | 385 kts | 307° |
| 2026-04-22 08:31 | 40.60613 | 13.46474 | 31332 ft | 386 kts | 307° |
| 2026-04-22 08:31 | 40.63974 | 13.40940 | 31899 ft | 389 kts | 307° |
| 2026-04-22 08:32 | 40.65262 | 13.38817 | 32125 ft | 390 kts | 307° |
| 2026-04-22 08:33 | 40.66433 | 13.36885 | 32311 ft | 391 kts | 307° |
| 2026-04-22 08:33 | 40.68133 | 13.34080 | 32556 ft | 392 kts | 307° |
| 2026-04-22 08:33 | 40.69841 | 13.31259 | 32806 ft | 394 kts | 307° |
| 2026-04-22 08:34 | 40.71546 | 13.28440 | 33093 ft | 394 kts | 307° |
| 2026-04-22 08:34 | 40.73254 | 13.25610 | 33356 ft | 395 kts | 307° |
| 2026-04-22 08:34 | 40.74942 | 13.22810 | 33647 ft | 394 kts | 307° |
| 2026-04-22 08:34 | 40.76638 | 13.19993 | 34002 ft | 392 kts | 307° |
| 2026-04-22 08:35 | 40.78329 | 13.17182 | 34356 ft | 390 kts | 307° |
| 2026-04-22 08:35 | 40.80013 | 13.14380 | 34621 ft | 390 kts | 306° |
| 2026-04-22 08:35 | 40.81702 | 13.11567 | 34808 ft | 392 kts | 307° |
| 2026-04-22 08:35 | 40.83397 | 13.08741 | 35038 ft | 392 kts | 306° |
| 2026-04-22 08:36 | 40.85095 | 13.05909 | 35296 ft | 392 kts | 306° |
| 2026-04-22 08:36 | 40.86789 | 13.03081 | 35531 ft | 392 kts | 306° |
| 2026-04-22 08:36 | 40.88477 | 13.00260 | 35822 ft | 391 kts | 306° |
| 2026-04-22 08:36 | 40.90163 | 12.97441 | 36017 ft | 392 kts | 306° |
| 2026-04-22 08:37 | 40.91918 | 12.94667 | 36015 ft | 396 kts | 311° |
| 2026-04-22 08:37 | 40.95741 | 12.89478 | 36017 ft | 394 kts | 312° |
| 2026-04-22 08:38 | 40.99580 | 12.84341 | 36018 ft | 391 kts | 312° |
| 2026-04-22 08:38 | 41.03384 | 12.79216 | 36020 ft | 389 kts | 312° |
| 2026-04-22 08:39 | 41.07165 | 12.74091 | 36017 ft | 388 kts | 311° |
| 2026-04-22 08:39 | 41.10932 | 12.68968 | 36019 ft | 387 kts | 311° |
| 2026-04-22 08:40 | 41.14670 | 12.63875 | 36021 ft | 388 kts | 312° |
| 2026-04-22 08:40 | 41.18437 | 12.58732 | 36019 ft | 389 kts | 311° |
| 2026-04-22 08:41 | 41.22212 | 12.53570 | 36019 ft | 390 kts | 311° |
| 2026-04-22 08:41 | 41.25990 | 12.48396 | 36019 ft | 390 kts | 311° |
| 2026-04-22 08:42 | 41.29775 | 12.43201 | 36019 ft | 391 kts | 311° |
| 2026-04-22 08:42 | 41.33565 | 12.37992 | 36023 ft | 392 kts | 311° |
| 2026-04-22 08:43 | 41.37333 | 12.32802 | 36017 ft | 392 kts | 312° |
| 2026-04-22 08:43 | 41.40449 | 12.28504 | 36019 ft | 392 kts | 312° |
| 2026-04-22 08:44 | 41.44236 | 12.23273 | 36017 ft | 391 kts | 312° |
| 2026-04-22 08:44 | 41.48008 | 12.18052 | 36018 ft | 390 kts | 311° |
| 2026-04-22 08:45 | 41.51767 | 12.12840 | 36018 ft | 389 kts | 311° |
| 2026-04-22 08:45 | 41.55522 | 12.07623 | 36017 ft | 389 kts | 311° |
| 2026-04-22 08:46 | 41.59264 | 12.02417 | 36018 ft | 388 kts | 311° |
| 2026-04-22 08:46 | 41.62969 | 11.97251 | 36019 ft | 387 kts | 312° |
| 2026-04-22 08:47 | 41.66695 | 11.92047 | 36021 ft | 386 kts | 312° |
| 2026-04-22 08:47 | 41.70411 | 11.86849 | 36020 ft | 386 kts | 312° |
| 2026-04-22 08:48 | 41.74099 | 11.81686 | 36027 ft | 385 kts | 311° |
| 2026-04-22 08:48 | 41.77802 | 11.76493 | 36028 ft | 385 kts | 311° |
| 2026-04-22 08:49 | 41.81502 | 11.71297 | 36028 ft | 385 kts | 311° |
| 2026-04-22 08:49 | 41.85201 | 11.66094 | 36027 ft | 386 kts | 311° |
| 2026-04-22 08:50 | 41.88906 | 11.60874 | 36028 ft | 386 kts | 311° |
| 2026-04-22 08:50 | 41.92615 | 11.55638 | 36028 ft | 387 kts | 311° |
| 2026-04-22 08:51 | 41.96327 | 11.50387 | 36029 ft | 387 kts | 311° |
| 2026-04-22 08:51 | 42.00011 | 11.45167 | 36043 ft | 387 kts | 311° |
| 2026-04-22 08:52 | 42.03725 | 11.39896 | 36038 ft | 388 kts | 311° |
| 2026-04-22 08:52 | 42.07434 | 11.34620 | 36036 ft | 388 kts | 311° |
| 2026-04-22 08:53 | 42.11141 | 11.29339 | 36043 ft | 387 kts | 311° |
| 2026-04-22 08:53 | 42.14839 | 11.24061 | 36048 ft | 387 kts | 311° |
| 2026-04-22 08:54 | 42.18527 | 11.18787 | 36048 ft | 386 kts | 311° |
| 2026-04-22 08:54 | 42.22210 | 11.13511 | 36042 ft | 386 kts | 311° |
| 2026-04-22 08:55 | 42.25864 | 11.08268 | 36056 ft | 385 kts | 311° |
| 2026-04-22 08:55 | 42.29529 | 11.02998 | 36052 ft | 385 kts | 311° |
| 2026-04-22 08:56 | 42.33192 | 10.97723 | 36046 ft | 384 kts | 311° |
| 2026-04-22 08:56 | 42.36843 | 10.92453 | 36042 ft | 384 kts | 311° |
| 2026-04-22 08:57 | 42.40493 | 10.87177 | 36053 ft | 383 kts | 311° |
| 2026-04-22 08:57 | 42.44136 | 10.81901 | 36053 ft | 383 kts | 311° |
| 2026-04-22 08:58 | 42.47776 | 10.76619 | 36046 ft | 383 kts | 311° |
| 2026-04-22 08:58 | 42.51393 | 10.71362 | 36045 ft | 383 kts | 311° |
| 2026-04-22 08:59 | 42.55029 | 10.66066 | 36043 ft | 383 kts | 311° |
| 2026-04-22 08:59 | 42.58663 | 10.60764 | 36055 ft | 383 kts | 311° |
| 2026-04-22 09:00 | 42.62298 | 10.55451 | 36051 ft | 384 kts | 311° |
| 2026-04-22 09:00 | 42.65907 | 10.50164 | 36044 ft | 384 kts | 311° |
| 2026-04-22 09:01 | 42.69535 | 10.44844 | 36046 ft | 384 kts | 311° |
| 2026-04-22 09:01 | 42.73344 | 10.39759 | 35990 ft | 387 kts | 319° |
| 2026-04-22 09:01 | 42.75577 | 10.37653 | 35707 ft | 391 kts | 327° |
| 2026-04-22 09:02 | 42.77949 | 10.35874 | 35470 ft | 386 kts | 327° |
| 2026-04-22 09:02 | 42.80308 | 10.34124 | 35220 ft | 385 kts | 327° |
| 2026-04-22 09:02 | 42.82653 | 10.32380 | 34974 ft | 385 kts | 327° |
| 2026-04-22 09:02 | 42.85002 | 10.30624 | 34733 ft | 384 kts | 327° |
| 2026-04-22 09:03 | 42.86548 | 10.29464 | 34564 ft | 384 kts | 327° |
| 2026-04-22 09:03 | 42.88874 | 10.27714 | 34129 ft | 379 kts | 327° |
| 2026-04-22 09:03 | 42.91911 | 10.25423 | 33571 ft | 372 kts | 327° |
| 2026-04-22 09:03 | 42.94164 | 10.23720 | 33087 ft | 368 kts | 326° |
| 2026-04-22 09:04 | 42.95669 | 10.22579 | 32860 ft | 363 kts | 326° |
| 2026-04-22 09:04 | 42.97842 | 10.20931 | 32568 ft | 353 kts | 326° |
| 2026-04-22 09:04 | 42.99941 | 10.19340 | 31914 ft | 346 kts | 326° |
| 2026-04-22 09:04 | 43.02044 | 10.17743 | 30975 ft | 346 kts | 326° |
| 2026-04-22 09:05 | 43.04150 | 10.16141 | 30083 ft | 346 kts | 326° |
| 2026-04-22 09:05 | 43.06246 | 10.14546 | 29285 ft | 342 kts | 326° |
| 2026-04-22 09:05 | 43.08321 | 10.12968 | 28506 ft | 339 kts | 326° |
| 2026-04-22 09:05 | 43.10351 | 10.11424 | 28030 ft | 332 kts | 325° |
| 2026-04-22 09:06 | 43.12383 | 10.09873 | 27352 ft | 335 kts | 325° |
| 2026-04-22 09:06 | 43.14419 | 10.08319 | 26816 ft | 334 kts | 325° |
| 2026-04-22 09:06 | 43.16411 | 10.06797 | 26331 ft | 332 kts | 325° |
| 2026-04-22 09:06 | 43.18419 | 10.05264 | 25863 ft | 329 kts | 325° |
| 2026-04-22 09:07 | 43.20417 | 10.03736 | 25333 ft | 328 kts | 324° |
| 2026-04-22 09:07 | 43.22405 | 10.02215 | 24901 ft | 325 kts | 324° |
| 2026-04-22 09:07 | 43.24362 | 10.00718 | 24518 ft | 320 kts | 324° |
| 2026-04-22 09:07 | 43.26297 | 9.99237 | 24158 ft | 315 kts | 324° |
| 2026-04-22 09:08 | 43.28176 | 9.97796 | 23807 ft | 311 kts | 324° |
| 2026-04-22 09:08 | 43.30050 | 9.96356 | 23564 ft | 307 kts | 324° |
| 2026-04-22 09:08 | 43.31934 | 9.94900 | 23331 ft | 316 kts | 324° |
| 2026-04-22 09:08 | 43.33870 | 9.93401 | 23087 ft | 322 kts | 324° |
| 2026-04-22 09:09 | 43.35822 | 9.91893 | 22835 ft | 321 kts | 324° |
| 2026-04-22 09:09 | 43.37760 | 9.90399 | 22582 ft | 318 kts | 324° |
| 2026-04-22 09:09 | 43.39691 | 9.88909 | 22329 ft | 316 kts | 324° |
| 2026-04-22 09:09 | 43.41603 | 9.87431 | 22078 ft | 315 kts | 325° |
| 2026-04-22 09:10 | 43.43504 | 9.85959 | 21827 ft | 313 kts | 325° |
| 2026-04-22 09:10 | 43.45399 | 9.84491 | 21577 ft | 312 kts | 325° |
| 2026-04-22 09:10 | 43.47288 | 9.83026 | 21327 ft | 311 kts | 325° |
| 2026-04-22 09:10 | 43.49169 | 9.81567 | 21067 ft | 310 kts | 325° |
| 2026-04-22 09:11 | 43.51047 | 9.80110 | 20826 ft | 309 kts | 325° |
| 2026-04-22 09:11 | 43.52897 | 9.78674 | 20563 ft | 307 kts | 325° |
| 2026-04-22 09:11 | 43.54748 | 9.77235 | 20195 ft | 304 kts | 325° |
| 2026-04-22 09:11 | 43.56583 | 9.75809 | 19755 ft | 302 kts | 325° |
| 2026-04-22 09:12 | 43.58409 | 9.74398 | 19348 ft | 299 kts | 326° |
| 2026-04-22 09:12 | 43.60220 | 9.72999 | 18956 ft | 296 kts | 326° |
| 2026-04-22 09:12 | 43.62009 | 9.71615 | 18578 ft | 294 kts | 326° |
| 2026-04-22 09:12 | 43.63787 | 9.70240 | 18208 ft | 290 kts | 326° |
| 2026-04-22 09:13 | 43.65541 | 9.68883 | 17859 ft | 287 kts | 326° |
| 2026-04-22 09:13 | 43.67256 | 9.67551 | 17477 ft | 285 kts | 326° |
| 2026-04-22 09:13 | 43.68979 | 9.66212 | 17123 ft | 283 kts | 326° |
| 2026-04-22 09:13 | 43.70686 | 9.64885 | 16766 ft | 280 kts | 326° |
| 2026-04-22 09:14 | 43.72380 | 9.63567 | 16406 ft | 278 kts | 327° |
| 2026-04-22 09:14 | 43.74046 | 9.62272 | 16050 ft | 279 kts | 327° |
| 2026-04-22 09:14 | 43.75747 | 9.60948 | 15687 ft | 281 kts | 327° |
| 2026-04-22 09:14 | 43.77463 | 9.59609 | 15325 ft | 288 kts | 327° |
| 2026-04-22 09:15 | 43.79251 | 9.58209 | 14720 ft | 300 kts | 328° |
| 2026-04-22 09:15 | 43.81065 | 9.56790 | 14271 ft | 299 kts | 328° |
| 2026-04-22 09:15 | 43.82871 | 9.55378 | 13878 ft | 297 kts | 328° |
| 2026-04-22 09:15 | 43.84666 | 9.53972 | 13510 ft | 295 kts | 328° |
| 2026-04-22 09:16 | 43.86424 | 9.52595 | 13145 ft | 293 kts | 329° |
| 2026-04-22 09:16 | 43.88194 | 9.51206 | 12716 ft | 293 kts | 329° |
| 2026-04-22 09:16 | 43.89954 | 9.49825 | 12428 ft | 289 kts | 329° |
| 2026-04-22 09:16 | 43.91693 | 9.48459 | 12121 ft | 285 kts | 329° |
| 2026-04-22 09:17 | 43.93416 | 9.47105 | 11763 ft | 284 kts | 329° |
| 2026-04-22 09:17 | 43.95131 | 9.45755 | 11403 ft | 283 kts | 330° |
| 2026-04-22 09:17 | 43.96840 | 9.44411 | 11039 ft | 283 kts | 330° |
| 2026-04-22 09:17 | 43.98487 | 9.42909 | 10661 ft | 284 kts | 317° |
| 2026-04-22 09:18 | 43.99723 | 9.40771 | 10424 ft | 286 kts | 306° |
| 2026-04-22 09:18 | 44.00828 | 9.38501 | 10256 ft | 280 kts | 306° |
| 2026-04-22 09:18 | 44.01903 | 9.36292 | 10121 ft | 272 kts | 306° |
| 2026-04-22 09:18 | 44.02963 | 9.34140 | 9861 ft | 268 kts | 308° |
| 2026-04-22 09:19 | 44.04253 | 9.32307 | 9572 ft | 264 kts | 323° |
| 2026-04-22 09:19 | 44.05718 | 9.30757 | 9223 ft | 265 kts | 327° |
| 2026-04-22 09:19 | 44.07375 | 9.29810 | 8910 ft | 261 kts | 354° |
| 2026-04-22 09:19 | 44.09158 | 9.29999 | 8644 ft | 257 kts | 18° |
| 2026-04-22 09:20 | 44.10733 | 9.31128 | 8397 ft | 254 kts | 39° |
| 2026-04-22 09:20 | 44.11919 | 9.32878 | 8295 ft | 246 kts | 50° |
| 2026-04-22 09:20 | 44.12946 | 9.34753 | 8172 ft | 239 kts | 53° |
| 2026-04-22 09:20 | 44.14111 | 9.36307 | 8036 ft | 230 kts | 26° |
| 2026-04-22 09:21 | 44.15636 | 9.36752 | 7891 ft | 225 kts | 358° |
| 2026-04-22 09:21 | 44.17144 | 9.36239 | 7689 ft | 225 kts | 336° |
| 2026-04-22 09:21 | 44.18466 | 9.35061 | 7410 ft | 227 kts | 326° |
| 2026-04-22 09:21 | 44.19729 | 9.33717 | 7146 ft | 228 kts | 325° |
| 2026-04-22 09:22 | 44.20969 | 9.32379 | 6916 ft | 227 kts | 325° |
| 2026-04-22 09:22 | 44.22232 | 9.31015 | 6654 ft | 227 kts | 325° |
| 2026-04-22 09:22 | 44.23462 | 9.29700 | 6397 ft | 226 kts | 325° |
| 2026-04-22 09:22 | 44.24709 | 9.28375 | 6163 ft | 225 kts | 325° |
| 2026-04-22 09:23 | 44.25954 | 9.27055 | 5920 ft | 225 kts | 326° |
| 2026-04-22 09:23 | 44.27178 | 9.25757 | 5812 ft | 218 kts | 326° |
| 2026-04-22 09:23 | 44.28392 | 9.24471 | 5663 ft | 220 kts | 326° |
| 2026-04-22 09:23 | 44.29613 | 9.23180 | 5416 ft | 219 kts | 325° |
| 2026-04-22 09:24 | 44.30829 | 9.21894 | 5193 ft | 218 kts | 325° |
| 2026-04-22 09:24 | 44.32033 | 9.20622 | 4972 ft | 217 kts | 325° |
| 2026-04-22 09:24 | 44.33208 | 9.19274 | 4717 ft | 221 kts | 311° |
| 2026-04-22 09:24 | 44.33918 | 9.17366 | 4512 ft | 221 kts | 295° |
| 2026-04-22 09:25 | 44.34487 | 9.15392 | 4251 ft | 218 kts | 292° |
| 2026-04-22 09:25 | 44.34949 | 9.13437 | 4004 ft | 212 kts | 289° |
| 2026-04-22 09:25 | 44.35365 | 9.11501 | 3808 ft | 203 kts | 288° |
| 2026-04-22 09:25 | 44.35757 | 9.09655 | 3599 ft | 193 kts | 288° |
| 2026-04-22 09:26 | 44.36131 | 9.07900 | 3431 ft | 185 kts | 289° |
| 2026-04-22 09:26 | 44.36494 | 9.06194 | 3181 ft | 181 kts | 288° |
| 2026-04-22 09:26 | 44.36845 | 9.04554 | 2917 ft | 170 kts | 288° |
| 2026-04-22 09:26 | 44.37172 | 9.03022 | 2674 ft | 160 kts | 288° |
| 2026-04-22 09:27 | 44.37484 | 9.01570 | 2492 ft | 157 kts | 288° |
| 2026-04-22 09:27 | 44.37801 | 9.00091 | 2265 ft | 161 kts | 286° |
| 2026-04-22 09:27 | 44.38123 | 8.98593 | 2030 ft | 160 kts | 285° |
| 2026-04-22 09:27 | 44.38439 | 8.97119 | 1811 ft | 157 kts | 284° |
| 2026-04-22 09:28 | 44.38746 | 8.95684 | 1593 ft | 152 kts | 283° |
| 2026-04-22 09:28 | 44.39046 | 8.94289 | 1378 ft | 147 kts | 284° |
| 2026-04-22 09:28 | 44.39332 | 8.92945 | 1171 ft | 143 kts | 290° |
| 2026-04-22 09:28 | 44.39642 | 8.91599 | 1009 ft | 148 kts | 291° |
| 2026-04-22 09:29 | 44.39913 | 8.90200 | 769 ft | 147 kts | 290° |
| 2026-04-22 09:29 | 44.40215 | 8.88846 | 556 ft | 145 kts | 289° |
| 2026-04-22 09:29 | 44.40518 | 8.87505 | 334 ft | 146 kts | 290° |
| 2026-04-22 09:29 | 44.40809 | 8.86146 | 132 ft | 147 kts | 288° |
| 2026-04-22 09:30 | 44.41074 | 8.84805 | 19 ft | 132 kts | 285° |
| 2026-04-22 09:30 | 44.41260 | 8.83852 | 21 ft | 70 kts | 285° |
| 2026-04-22 09:30 | 44.41343 | 8.83429 | 23 ft | 30 kts | 285° |
| 2026-04-22 09:30 | 44.41389 | 8.83218 | 20 ft | 20 kts | 296° |
| 2026-04-22 09:31 | 44.41475 | 8.83095 | 20 ft | 14 kts | 330° |
| 2026-04-22 09:31 | 44.41540 | 8.83115 | 20 ft | 10 kts | 49° |
| 2026-04-22 09:31 | 44.41541 | 8.83204 | 22 ft | 9 kts | 105° |
| 2026-04-22 09:31 | 44.41523 | 8.83291 | 20 ft | 9 kts | 105° |
| 2026-04-22 09:32 | 44.41505 | 8.83381 | 21 ft | 11 kts | 105° |
| 2026-04-22 09:32 | 44.41481 | 8.83508 | 19 ft | 17 kts | 105° |
| 2026-04-22 09:32 | 44.41448 | 8.83676 | 19 ft | 18 kts | 105° |
| 2026-04-22 09:32 | 44.41415 | 8.83844 | 19 ft | 18 kts | 105° |
| 2026-04-22 09:33 | 44.41383 | 8.84006 | 19 ft | 17 kts | 105° |
| 2026-04-22 09:33 | 44.41353 | 8.84162 | 19 ft | 16 kts | 104° |
| 2026-04-22 09:33 | 44.41330 | 8.84280 | 19 ft | 9 kts | 106° |
| 2026-04-22 09:33 | 44.41314 | 8.84358 | 19 ft | 8 kts | 104° |
| 2026-04-22 09:34 | 44.41329 | 8.84431 | 19 ft | 8 kts | 53° |
| 2026-04-22 09:34 | 44.41362 | 8.84493 | 19 ft | 8 kts | 53° |
| 2026-04-22 09:34 | 44.41395 | 8.84553 | 19 ft | 8 kts | 52° |
| 2026-04-22 09:35 | 44.41403 | 8.84683 | 19 ft | 7 kts | 107° |
| 2026-04-22 09:35 | 44.41390 | 8.84750 | 19 ft | 8 kts | 103° |
| 2026-04-22 09:35 | 44.41374 | 8.84836 | 19 ft | 11 kts | 105° |
| 2026-04-22 09:35 | 44.41354 | 8.84940 | 19 ft | 11 kts | 103° |
| 2026-04-22 09:36 | 44.41338 | 8.85039 | 19 ft | 8 kts | 104° |
| 2026-04-22 09:36 | 44.41324 | 8.85111 | 19 ft | 8 kts | 106° |
| 2026-04-22 09:36 | 44.41313 | 8.85170 | 19 ft | 5 kts | 92° |
| 2026-04-22 09:36 | 44.41313 | 8.85172 | 19 ft | 0 kts | 87° |
| 2026-04-22 09:37 | 44.41314 | 8.85174 | 19 ft | 1 kts | 83° |
| 2026-04-22 09:37 | 44.41335 | 8.85196 | 19 ft | 4 kts | 23° |
| 2026-04-22 09:37 | 44.41364 | 8.85206 | 19 ft | 3 kts | 15° |
| 2026-04-22 09:37 | 44.41367 | 8.85207 | 19 ft | 0 kts | 15° |